sensor_id;sensor_type;location;lat;lon;timestamp;P1;durP1;ratioP1;P2;durP2;ratioP2
5805;SDS011;2929;50.810;8.342;2022-10-28T00:00:14;13.93;;;6.40;;
5805;SDS011;2929;50.810;8.342;2022-10-28T00:02:42;8.70;;;4.10;;
5805;SDS011;2929;50.810;8.342;2022-10-28T00:05:09;16.23;;;5.53;;
5805;SDS011;2929;50.810;8.342;2022-10-28T00:07:36;16.33;;;4.73;;
5805;SDS011;2929;50.810;8.342;2022-10-28T00:10:03;72.53;;;8.63;;
5805;SDS011;2929;50.810;8.342;2022-10-28T00:12:34;15.13;;;5.70;;
5805;SDS011;2929;50.810;8.342;2022-10-28T00:15:02;12.47;;;6.63;;
5805;SDS011;2929;50.810;8.342;2022-10-28T00:17:30;9.00;;;5.67;;
5805;SDS011;2929;50.810;8.342;2022-10-28T00:19:57;8.33;;;5.10;;
5805;SDS011;2929;50.810;8.342;2022-10-28T00:22:24;7.93;;;5.13;;
5805;SDS011;2929;50.810;8.342;2022-10-28T00:24:52;9.20;;;6.23;;
5805;SDS011;2929;50.810;8.342;2022-10-28T00:27:19;22.70;;;6.27;;
5805;SDS011;2929;50.810;8.342;2022-10-28T00:29:48;14.70;;;5.90;;
5805;SDS011;2929;50.810;8.342;2022-10-28T00:32:15;12.00;;;5.60;;
5805;SDS011;2929;50.810;8.342;2022-10-28T00:34:42;16.33;;;6.07;;
5805;SDS011;2929;50.810;8.342;2022-10-28T00:37:09;19.43;;;8.33;;
5805;SDS011;2929;50.810;8.342;2022-10-28T00:39:36;10.23;;;6.27;;
5805;SDS011;2929;50.810;8.342;2022-10-28T00:42:03;13.00;;;6.50;;
5805;SDS011;2929;50.810;8.342;2022-10-28T00:47:36;13.77;;;6.73;;
5805;SDS011;2929;50.810;8.342;2022-10-28T00:50:17;12.23;;;6.13;;
5805;SDS011;2929;50.810;8.342;2022-10-28T00:52:51;5.20;;;4.23;;
5805;SDS011;2929;50.810;8.342;2022-10-28T00:55:22;5.63;;;3.67;;
5805;SDS011;2929;50.810;8.342;2022-10-28T00:57:50;11.20;;;5.20;;
5805;SDS011;2929;50.810;8.342;2022-10-28T01:00:22;13.83;;;4.83;;
5805;SDS011;2929;50.810;8.342;2022-10-28T01:02:50;13.13;;;5.77;;
5805;SDS011;2929;50.810;8.342;2022-10-28T01:05:18;8.70;;;5.50;;
5805;SDS011;2929;50.810;8.342;2022-10-28T01:07:49;12.20;;;4.60;;
5805;SDS011;2929;50.810;8.342;2022-10-28T01:10:16;10.50;;;5.83;;
5805;SDS011;2929;50.810;8.342;2022-10-28T01:12:47;14.20;;;6.77;;
5805;SDS011;2929;50.810;8.342;2022-10-28T01:15:26;10.80;;;5.57;;
5805;SDS011;2929;50.810;8.342;2022-10-28T01:18:01;12.50;;;5.73;;
5805;SDS011;2929;50.810;8.342;2022-10-28T01:23:43;12.37;;;5.57;;
5805;SDS011;2929;50.810;8.342;2022-10-28T01:26:27;22.83;;;6.80;;
5805;SDS011;2929;50.810;8.342;2022-10-28T01:29:20;16.17;;;6.17;;
5805;SDS011;2929;50.810;8.342;2022-10-28T01:32:03;33.10;;;7.93;;
5805;SDS011;2929;50.810;8.342;2022-10-28T01:34:37;19.97;;;8.70;;
5805;SDS011;2929;50.810;8.342;2022-10-28T01:37:14;12.00;;;7.30;;
5805;SDS011;2929;50.810;8.342;2022-10-28T01:39:47;17.43;;;7.23;;
5805;SDS011;2929;50.810;8.342;2022-10-28T01:42:22;14.90;;;7.17;;
5805;SDS011;2929;50.810;8.342;2022-10-28T01:44:57;13.63;;;7.63;;
5805;SDS011;2929;50.810;8.342;2022-10-28T01:47:30;8.90;;;6.73;;
5805;SDS011;2929;50.810;8.342;2022-10-28T01:50:03;14.60;;;7.20;;
5805;SDS011;2929;50.810;8.342;2022-10-28T01:52:36;13.50;;;6.87;;
5805;SDS011;2929;50.810;8.342;2022-10-28T01:55:07;18.30;;;6.77;;
5805;SDS011;2929;50.810;8.342;2022-10-28T01:57:40;18.83;;;7.20;;
5805;SDS011;2929;50.810;8.342;2022-10-28T02:00:09;20.00;;;6.90;;
5805;SDS011;2929;50.810;8.342;2022-10-28T02:02:38;18.60;;;7.60;;
5805;SDS011;2929;50.810;8.342;2022-10-28T02:08:03;13.60;;;6.97;;
5805;SDS011;2929;50.810;8.342;2022-10-28T02:10:46;14.57;;;7.00;;
5805;SDS011;2929;50.810;8.342;2022-10-28T02:13:24;12.93;;;7.03;;
5805;SDS011;2929;50.810;8.342;2022-10-28T02:15:59;21.33;;;7.03;;
5805;SDS011;2929;50.810;8.342;2022-10-28T02:18:36;19.60;;;7.10;;
5805;SDS011;2929;50.810;8.342;2022-10-28T02:21:09;16.00;;;6.27;;
5805;SDS011;2929;50.810;8.342;2022-10-28T02:23:44;23.33;;;6.40;;
5805;SDS011;2929;50.810;8.342;2022-10-28T02:26:19;17.30;;;6.20;;
5805;SDS011;2929;50.810;8.342;2022-10-28T02:28:53;15.23;;;6.10;;
5805;SDS011;2929;50.810;8.342;2022-10-28T02:31:27;22.00;;;7.47;;
5805;SDS011;2929;50.810;8.342;2022-10-28T02:33:59;24.50;;;7.23;;
5805;SDS011;2929;50.810;8.342;2022-10-28T02:36:31;26.20;;;6.70;;
5805;SDS011;2929;50.810;8.342;2022-10-28T02:39:02;13.80;;;7.13;;
5805;SDS011;2929;50.810;8.342;2022-10-28T02:41:32;19.77;;;7.63;;
5805;SDS011;2929;50.810;8.342;2022-10-28T02:44:06;12.27;;;6.03;;
5805;SDS011;2929;50.810;8.342;2022-10-28T02:46:36;18.03;;;6.63;;
5805;SDS011;2929;50.810;8.342;2022-10-28T02:49:09;18.30;;;6.50;;
5805;SDS011;2929;50.810;8.342;2022-10-28T02:51:39;19.20;;;7.37;;
5805;SDS011;2929;50.810;8.342;2022-10-28T02:54:10;11.33;;;6.40;;
5805;SDS011;2929;50.810;8.342;2022-10-28T02:56:41;11.37;;;6.63;;
5805;SDS011;2929;50.810;8.342;2022-10-28T02:59:14;29.13;;;5.63;;
5805;SDS011;2929;50.810;8.342;2022-10-28T03:01:41;21.67;;;5.70;;
5805;SDS011;2929;50.810;8.342;2022-10-28T03:04:10;154.60;;;9.23;;
5805;SDS011;2929;50.810;8.342;2022-10-28T03:06:37;187.37;;;8.40;;
5805;SDS011;2929;50.810;8.342;2022-10-28T03:09:04;22.60;;;4.87;;
5805;SDS011;2929;50.810;8.342;2022-10-28T03:11:31;10.23;;;5.10;;
5805;SDS011;2929;50.810;8.342;2022-10-28T03:13:58;7.30;;;5.60;;
5805;SDS011;2929;50.810;8.342;2022-10-28T03:16:25;12.40;;;5.97;;
5805;SDS011;2929;50.810;8.342;2022-10-28T03:18:52;15.13;;;5.37;;
5805;SDS011;2929;50.810;8.342;2022-10-28T03:21:21;14.40;;;5.37;;
5805;SDS011;2929;50.810;8.342;2022-10-28T03:23:48;13.60;;;5.77;;
5805;SDS011;2929;50.810;8.342;2022-10-28T03:26:15;89.73;;;6.30;;
5805;SDS011;2929;50.810;8.342;2022-10-28T03:28:42;143.27;;;6.60;;
5805;SDS011;2929;50.810;8.342;2022-10-28T03:31:09;12.43;;;5.37;;
5805;SDS011;2929;50.810;8.342;2022-10-28T03:33:36;13.03;;;6.10;;
5805;SDS011;2929;50.810;8.342;2022-10-28T03:36:03;13.43;;;6.20;;
5805;SDS011;2929;50.810;8.342;2022-10-28T03:38:32;13.97;;;5.73;;
5805;SDS011;2929;50.810;8.342;2022-10-28T03:41:00;17.13;;;4.77;;
5805;SDS011;2929;50.810;8.342;2022-10-28T03:43:27;12.13;;;6.13;;
5805;SDS011;2929;50.810;8.342;2022-10-28T03:45:54;13.90;;;6.10;;
5805;SDS011;2929;50.810;8.342;2022-10-28T03:48:21;23.93;;;7.53;;
5805;SDS011;2929;50.810;8.342;2022-10-28T03:50:51;9.00;;;5.60;;
5805;SDS011;2929;50.810;8.342;2022-10-28T03:53:18;12.50;;;6.70;;
5805;SDS011;2929;50.810;8.342;2022-10-28T03:55:51;19.30;;;8.23;;
5805;SDS011;2929;50.810;8.342;2022-10-28T03:58:18;17.80;;;7.70;;
5805;SDS011;2929;50.810;8.342;2022-10-28T04:00:46;18.00;;;7.43;;
5805;SDS011;2929;50.810;8.342;2022-10-28T04:03:14;22.70;;;7.63;;
5805;SDS011;2929;50.810;8.342;2022-10-28T04:05:41;24.33;;;7.87;;
5805;SDS011;2929;50.810;8.342;2022-10-28T04:08:08;17.60;;;6.97;;
5805;SDS011;2929;50.810;8.342;2022-10-28T04:10:35;18.03;;;7.13;;
5805;SDS011;2929;50.810;8.342;2022-10-28T04:13:04;15.60;;;7.03;;
5805;SDS011;2929;50.810;8.342;2022-10-28T04:15:33;28.20;;;6.67;;
5805;SDS011;2929;50.810;8.342;2022-10-28T04:18:00;34.70;;;7.53;;
5805;SDS011;2929;50.810;8.342;2022-10-28T04:20:27;17.10;;;7.30;;
5805;SDS011;2929;50.810;8.342;2022-10-28T04:22:55;27.43;;;7.77;;
5805;SDS011;2929;50.810;8.342;2022-10-28T04:25:22;20.90;;;7.40;;
5805;SDS011;2929;50.810;8.342;2022-10-28T04:27:50;19.70;;;7.17;;
5805;SDS011;2929;50.810;8.342;2022-10-28T04:30:19;26.77;;;7.17;;
5805;SDS011;2929;50.810;8.342;2022-10-28T04:32:46;25.33;;;8.50;;
5805;SDS011;2929;50.810;8.342;2022-10-28T04:35:13;15.50;;;7.20;;
5805;SDS011;2929;50.810;8.342;2022-10-28T04:37:40;17.50;;;7.80;;
5805;SDS011;2929;50.810;8.342;2022-10-28T04:40:08;29.60;;;8.33;;
5805;SDS011;2929;50.810;8.342;2022-10-28T04:42:36;23.73;;;7.70;;
5805;SDS011;2929;50.810;8.342;2022-10-28T04:45:03;19.33;;;7.60;;
5805;SDS011;2929;50.810;8.342;2022-10-28T04:47:32;15.60;;;7.40;;
5805;SDS011;2929;50.810;8.342;2022-10-28T04:50:00;13.47;;;6.37;;
5805;SDS011;2929;50.810;8.342;2022-10-28T04:52:27;18.50;;;7.20;;
5805;SDS011;2929;50.810;8.342;2022-10-28T04:54:54;17.70;;;7.37;;
5805;SDS011;2929;50.810;8.342;2022-10-28T04:57:21;31.97;;;6.90;;
5805;SDS011;2929;50.810;8.342;2022-10-28T04:59:48;14.23;;;6.70;;
5805;SDS011;2929;50.810;8.342;2022-10-28T05:02:15;25.33;;;6.50;;
5805;SDS011;2929;50.810;8.342;2022-10-28T05:04:43;12.30;;;5.67;;
5805;SDS011;2929;50.810;8.342;2022-10-28T05:07:10;105.40;;;9.80;;
5805;SDS011;2929;50.810;8.342;2022-10-28T05:09:38;10.67;;;6.73;;
5805;SDS011;2929;50.810;8.342;2022-10-28T05:12:05;11.50;;;6.43;;
5805;SDS011;2929;50.810;8.342;2022-10-28T05:14:32;13.17;;;6.07;;
5805;SDS011;2929;50.810;8.342;2022-10-28T05:16:59;16.10;;;6.90;;
5805;SDS011;2929;50.810;8.342;2022-10-28T05:19:26;18.03;;;6.93;;
5805;SDS011;2929;50.810;8.342;2022-10-28T05:21:54;13.00;;;5.73;;
5805;SDS011;2929;50.810;8.342;2022-10-28T05:24:21;88.60;;;8.00;;
5805;SDS011;2929;50.810;8.342;2022-10-28T05:26:48;113.37;;;5.90;;
5805;SDS011;2929;50.810;8.342;2022-10-28T05:29:15;24.13;;;4.77;;
5805;SDS011;2929;50.810;8.342;2022-10-28T05:31:43;15.10;;;5.47;;
5805;SDS011;2929;50.810;8.342;2022-10-28T05:34:11;15.80;;;6.07;;
5805;SDS011;2929;50.810;8.342;2022-10-28T05:36:38;58.47;;;4.80;;
5805;SDS011;2929;50.810;8.342;2022-10-28T05:39:07;103.53;;;5.23;;
5805;SDS011;2929;50.810;8.342;2022-10-28T05:41:34;51.83;;;5.00;;
5805;SDS011;2929;50.810;8.342;2022-10-28T05:44:01;23.47;;;4.50;;
5805;SDS011;2929;50.810;8.342;2022-10-28T05:46:28;15.23;;;6.07;;
5805;SDS011;2929;50.810;8.342;2022-10-28T05:48:55;24.40;;;6.87;;
5805;SDS011;2929;50.810;8.342;2022-10-28T05:51:22;17.27;;;6.47;;
5805;SDS011;2929;50.810;8.342;2022-10-28T05:53:49;19.53;;;6.40;;
5805;SDS011;2929;50.810;8.342;2022-10-28T05:56:17;15.10;;;6.93;;
5805;SDS011;2929;50.810;8.342;2022-10-28T05:58:45;19.60;;;7.70;;
5805;SDS011;2929;50.810;8.342;2022-10-28T06:01:13;137.20;;;8.93;;
5805;SDS011;2929;50.810;8.342;2022-10-28T06:03:40;33.60;;;7.30;;
5805;SDS011;2929;50.810;8.342;2022-10-28T06:06:07;22.67;;;7.50;;
5805;SDS011;2929;50.810;8.342;2022-10-28T06:08:34;17.23;;;6.87;;
5805;SDS011;2929;50.810;8.342;2022-10-28T06:11:01;15.70;;;7.00;;
5805;SDS011;2929;50.810;8.342;2022-10-28T06:13:30;27.93;;;8.30;;
5805;SDS011;2929;50.810;8.342;2022-10-28T06:15:57;35.07;;;7.70;;
5805;SDS011;2929;50.810;8.342;2022-10-28T06:18:24;29.00;;;9.33;;
5805;SDS011;2929;50.810;8.342;2022-10-28T06:20:52;48.87;;;10.27;;
5805;SDS011;2929;50.810;8.342;2022-10-28T06:23:19;33.67;;;10.10;;
5805;SDS011;2929;50.810;8.342;2022-10-28T06:25:46;21.87;;;8.30;;
5805;SDS011;2929;50.810;8.342;2022-10-28T06:28:14;33.20;;;9.47;;
5805;SDS011;2929;50.810;8.342;2022-10-28T06:30:42;28.17;;;8.70;;
5805;SDS011;2929;50.810;8.342;2022-10-28T06:33:09;49.27;;;8.80;;
5805;SDS011;2929;50.810;8.342;2022-10-28T06:35:36;69.30;;;9.50;;
5805;SDS011;2929;50.810;8.342;2022-10-28T06:38:03;40.57;;;8.27;;
5805;SDS011;2929;50.810;8.342;2022-10-28T06:40:30;51.47;;;10.03;;
5805;SDS011;2929;50.810;8.342;2022-10-28T06:42:57;46.00;;;8.87;;
5805;SDS011;2929;50.810;8.342;2022-10-28T06:45:25;85.17;;;11.97;;
5805;SDS011;2929;50.810;8.342;2022-10-28T06:47:57;52.40;;;10.53;;
5805;SDS011;2929;50.810;8.342;2022-10-28T06:50:26;49.73;;;10.90;;
5805;SDS011;2929;50.810;8.342;2022-10-28T06:52:54;54.27;;;12.90;;
5805;SDS011;2929;50.810;8.342;2022-10-28T06:55:21;47.27;;;16.03;;
5805;SDS011;2929;50.810;8.342;2022-10-28T06:57:49;34.67;;;17.87;;
5805;SDS011;2929;50.810;8.342;2022-10-28T07:00:16;32.83;;;13.67;;
5805;SDS011;2929;50.810;8.342;2022-10-28T07:02:43;17.90;;;11.20;;
5805;SDS011;2929;50.810;8.342;2022-10-28T07:05:17;26.23;;;12.83;;
5805;SDS011;2929;50.810;8.342;2022-10-28T07:07:44;23.07;;;12.20;;
5805;SDS011;2929;50.810;8.342;2022-10-28T07:10:11;26.90;;;13.50;;
5805;SDS011;2929;50.810;8.342;2022-10-28T07:12:38;23.23;;;12.87;;
5805;SDS011;2929;50.810;8.342;2022-10-28T07:15:05;29.93;;;13.93;;
5805;SDS011;2929;50.810;8.342;2022-10-28T07:17:33;22.53;;;11.83;;
5805;SDS011;2929;50.810;8.342;2022-10-28T07:20:00;22.93;;;12.20;;
5805;SDS011;2929;50.810;8.342;2022-10-28T07:22:29;30.10;;;12.83;;
5805;SDS011;2929;50.810;8.342;2022-10-28T07:24:56;21.97;;;11.50;;
5805;SDS011;2929;50.810;8.342;2022-10-28T07:27:23;36.83;;;15.70;;
5805;SDS011;2929;50.810;8.342;2022-10-28T07:29:50;32.77;;;15.50;;
5805;SDS011;2929;50.810;8.342;2022-10-28T07:32:17;27.03;;;14.57;;
5805;SDS011;2929;50.810;8.342;2022-10-28T07:34:44;26.13;;;13.17;;
5805;SDS011;2929;50.810;8.342;2022-10-28T07:37:11;23.70;;;12.13;;
5805;SDS011;2929;50.810;8.342;2022-10-28T07:39:39;42.40;;;19.60;;
5805;SDS011;2929;50.810;8.342;2022-10-28T07:42:06;42.30;;;19.80;;
5805;SDS011;2929;50.810;8.342;2022-10-28T07:44:33;40.73;;;20.70;;
5805;SDS011;2929;50.810;8.342;2022-10-28T07:47:00;48.40;;;15.63;;
5805;SDS011;2929;50.810;8.342;2022-10-28T07:49:27;27.77;;;12.27;;
5805;SDS011;2929;50.810;8.342;2022-10-28T07:51:54;24.07;;;12.50;;
5805;SDS011;2929;50.810;8.342;2022-10-28T07:54:21;25.43;;;12.93;;
5805;SDS011;2929;50.810;8.342;2022-10-28T07:56:50;41.47;;;15.30;;
5805;SDS011;2929;50.810;8.342;2022-10-28T07:59:17;30.40;;;14.87;;
5805;SDS011;2929;50.810;8.342;2022-10-28T08:01:45;32.23;;;17.07;;
5805;SDS011;2929;50.810;8.342;2022-10-28T08:04:12;35.63;;;17.00;;
5805;SDS011;2929;50.810;8.342;2022-10-28T08:06:39;33.50;;;18.30;;
5805;SDS011;2929;50.810;8.342;2022-10-28T08:09:06;34.37;;;17.67;;
5805;SDS011;2929;50.810;8.342;2022-10-28T08:11:33;35.63;;;17.33;;
5805;SDS011;2929;50.810;8.342;2022-10-28T08:14:02;25.47;;;16.20;;
5805;SDS011;2929;50.810;8.342;2022-10-28T08:16:29;40.53;;;16.60;;
5805;SDS011;2929;50.810;8.342;2022-10-28T08:18:56;28.30;;;15.07;;
5805;SDS011;2929;50.810;8.342;2022-10-28T08:21:23;45.53;;;17.27;;
5805;SDS011;2929;50.810;8.342;2022-10-28T08:23:52;37.70;;;17.30;;
5805;SDS011;2929;50.810;8.342;2022-10-28T08:26:19;30.83;;;15.53;;
5805;SDS011;2929;50.810;8.342;2022-10-28T08:28:46;25.37;;;12.20;;
5805;SDS011;2929;50.810;8.342;2022-10-28T08:31:14;19.87;;;11.10;;
5805;SDS011;2929;50.810;8.342;2022-10-28T08:33:42;24.13;;;9.57;;
5805;SDS011;2929;50.810;8.342;2022-10-28T08:36:10;32.33;;;11.60;;
5805;SDS011;2929;50.810;8.342;2022-10-28T08:38:38;23.80;;;11.13;;
5805;SDS011;2929;50.810;8.342;2022-10-28T08:41:13;35.37;;;15.40;;
5805;SDS011;2929;50.810;8.342;2022-10-28T08:43:52;19.60;;;8.40;;
5805;SDS011;2929;50.810;8.342;2022-10-28T08:46:34;34.80;;;12.10;;
5805;SDS011;2929;50.810;8.342;2022-10-28T08:49:13;34.30;;;11.90;;
5805;SDS011;2929;50.810;8.342;2022-10-28T08:51:44;36.10;;;11.73;;
5805;SDS011;2929;50.810;8.342;2022-10-28T08:54:17;25.10;;;9.47;;
5805;SDS011;2929;50.810;8.342;2022-10-28T08:56:49;25.10;;;9.20;;
5805;SDS011;2929;50.810;8.342;2022-10-28T08:59:20;28.47;;;8.97;;
5805;SDS011;2929;50.810;8.342;2022-10-28T09:01:51;15.70;;;6.90;;
5805;SDS011;2929;50.810;8.342;2022-10-28T09:04:23;14.70;;;6.80;;
5805;SDS011;2929;50.810;8.342;2022-10-28T09:06:55;19.03;;;6.70;;
5805;SDS011;2929;50.810;8.342;2022-10-28T09:09:22;18.13;;;6.63;;
5805;SDS011;2929;50.810;8.342;2022-10-28T09:12:01;17.67;;;6.83;;
5805;SDS011;2929;50.810;8.342;2022-10-28T09:14:41;21.17;;;7.67;;
5805;SDS011;2929;50.810;8.342;2022-10-28T09:17:18;15.27;;;6.20;;
5805;SDS011;2929;50.810;8.342;2022-10-28T09:19:47;14.00;;;5.80;;
5805;SDS011;2929;50.810;8.342;2022-10-28T09:22:20;11.83;;;5.80;;
5805;SDS011;2929;50.810;8.342;2022-10-28T09:24:54;15.20;;;4.83;;
5805;SDS011;2929;50.810;8.342;2022-10-28T09:27:29;18.73;;;4.97;;
5805;SDS011;2929;50.810;8.342;2022-10-28T09:30:13;16.60;;;5.43;;
5805;SDS011;2929;50.810;8.342;2022-10-28T09:32:50;19.57;;;5.07;;
5805;SDS011;2929;50.810;8.342;2022-10-28T09:35:24;13.70;;;4.77;;
5805;SDS011;2929;50.810;8.342;2022-10-28T09:38:06;7.80;;;4.10;;
5805;SDS011;2929;50.810;8.342;2022-10-28T09:40:40;11.63;;;4.90;;
5805;SDS011;2929;50.810;8.342;2022-10-28T09:43:16;10.60;;;4.50;;
5805;SDS011;2929;50.810;8.342;2022-10-28T09:45:52;14.67;;;5.17;;
5805;SDS011;2929;50.810;8.342;2022-10-28T09:48:26;15.80;;;4.60;;
5805;SDS011;2929;50.810;8.342;2022-10-28T09:50:56;16.10;;;4.63;;
5805;SDS011;2929;50.810;8.342;2022-10-28T09:53:30;10.20;;;5.33;;
5805;SDS011;2929;50.810;8.342;2022-10-28T09:56:04;16.60;;;5.90;;
5805;SDS011;2929;50.810;8.342;2022-10-28T09:58:32;15.17;;;4.60;;
5805;SDS011;2929;50.810;8.342;2022-10-28T10:01:00;14.50;;;4.17;;
5805;SDS011;2929;50.810;8.342;2022-10-28T10:03:30;10.70;;;4.10;;
5805;SDS011;2929;50.810;8.342;2022-10-28T10:06:08;10.80;;;4.10;;
5805;SDS011;2929;50.810;8.342;2022-10-28T10:08:38;11.57;;;3.67;;
5805;SDS011;2929;50.810;8.342;2022-10-28T10:11:10;13.40;;;4.33;;
5805;SDS011;2929;50.810;8.342;2022-10-28T10:13:46;11.47;;;3.80;;
5805;SDS011;2929;50.810;8.342;2022-10-28T10:16:16;15.20;;;3.87;;
5805;SDS011;2929;50.810;8.342;2022-10-28T10:18:48;8.87;;;3.93;;
5805;SDS011;2929;50.810;8.342;2022-10-28T10:21:17;7.53;;;3.57;;
5805;SDS011;2929;50.810;8.342;2022-10-28T10:24:15;13.87;;;3.33;;
5805;SDS011;2929;50.810;8.342;2022-10-28T10:26:47;15.63;;;3.90;;
5805;SDS011;2929;50.810;8.342;2022-10-28T10:29:15;11.83;;;3.50;;
5805;SDS011;2929;50.810;8.342;2022-10-28T10:31:42;14.10;;;3.90;;
5805;SDS011;2929;50.810;8.342;2022-10-28T10:34:15;10.83;;;4.30;;
5805;SDS011;2929;50.810;8.342;2022-10-28T10:36:47;16.50;;;3.43;;
5805;SDS011;2929;50.810;8.342;2022-10-28T10:39:19;11.37;;;4.30;;
5805;SDS011;2929;50.810;8.342;2022-10-28T10:41:50;14.43;;;3.80;;
5805;SDS011;2929;50.810;8.342;2022-10-28T10:47:15;11.30;;;3.63;;
5805;SDS011;2929;50.810;8.342;2022-10-28T10:49:46;21.03;;;4.10;;
5805;SDS011;2929;50.810;8.342;2022-10-28T10:52:19;9.07;;;3.20;;
5805;SDS011;2929;50.810;8.342;2022-10-28T10:54:57;8.90;;;3.53;;
5805;SDS011;2929;50.810;8.342;2022-10-28T10:57:27;13.33;;;3.60;;
5805;SDS011;2929;50.810;8.342;2022-10-28T10:59:54;9.37;;;3.27;;
5805;SDS011;2929;50.810;8.342;2022-10-28T11:02:23;13.60;;;3.50;;
5805;SDS011;2929;50.810;8.342;2022-10-28T11:04:55;13.50;;;3.80;;
5805;SDS011;2929;50.810;8.342;2022-10-28T11:07:25;13.53;;;4.00;;
5805;SDS011;2929;50.810;8.342;2022-10-28T11:09:53;15.23;;;3.83;;
5805;SDS011;2929;50.810;8.342;2022-10-28T11:12:24;10.10;;;3.17;;
5805;SDS011;2929;50.810;8.342;2022-10-28T11:14:54;17.77;;;3.33;;
5805;SDS011;2929;50.810;8.342;2022-10-28T11:17:23;12.33;;;3.93;;
5805;SDS011;2929;50.810;8.342;2022-10-28T11:19:52;14.67;;;3.50;;
5805;SDS011;2929;50.810;8.342;2022-10-28T11:22:26;12.53;;;3.13;;
5805;SDS011;2929;50.810;8.342;2022-10-28T11:25:28;12.73;;;3.70;;
5805;SDS011;2929;50.810;8.342;2022-10-28T11:28:23;8.40;;;3.60;;
5805;SDS011;2929;50.810;8.342;2022-10-28T11:34:13;10.60;;;3.40;;
5805;SDS011;2929;50.810;8.342;2022-10-28T11:36:51;11.73;;;3.73;;
5805;SDS011;2929;50.810;8.342;2022-10-28T11:39:34;15.33;;;4.00;;
5805;SDS011;2929;50.810;8.342;2022-10-28T11:42:11;14.73;;;3.27;;
5805;SDS011;2929;50.810;8.342;2022-10-28T11:44:50;19.60;;;3.57;;
5805;SDS011;2929;50.810;8.342;2022-10-28T11:47:27;22.97;;;4.10;;
5805;SDS011;2929;50.810;8.342;2022-10-28T11:50:14;14.57;;;3.83;;
5805;SDS011;2929;50.810;8.342;2022-10-28T11:53:16;11.60;;;3.70;;
5805;SDS011;2929;50.810;8.342;2022-10-28T11:55:55;9.43;;;3.43;;
5805;SDS011;2929;50.810;8.342;2022-10-28T11:58:31;17.13;;;4.70;;
5805;SDS011;2929;50.810;8.342;2022-10-28T12:01:07;11.40;;;3.53;;
5805;SDS011;2929;50.810;8.342;2022-10-28T12:03:53;15.33;;;3.97;;
5805;SDS011;2929;50.810;8.342;2022-10-28T12:06:37;22.03;;;4.10;;
5805;SDS011;2929;50.810;8.342;2022-10-28T12:09:27;13.07;;;3.40;;
5805;SDS011;2929;50.810;8.342;2022-10-28T12:12:06;10.43;;;3.23;;
5805;SDS011;2929;50.810;8.342;2022-10-28T12:14:44;12.63;;;3.80;;
5805;SDS011;2929;50.810;8.342;2022-10-28T12:17:16;15.00;;;3.73;;
5805;SDS011;2929;50.810;8.342;2022-10-28T12:19:51;17.60;;;3.80;;
5805;SDS011;2929;50.810;8.342;2022-10-28T12:22:23;8.90;;;3.27;;
5805;SDS011;2929;50.810;8.342;2022-10-28T12:24:56;13.17;;;3.30;;
5805;SDS011;2929;50.810;8.342;2022-10-28T12:27:27;13.47;;;3.63;;
5805;SDS011;2929;50.810;8.342;2022-10-28T12:29:57;25.73;;;3.70;;
5805;SDS011;2929;50.810;8.342;2022-10-28T12:32:29;16.37;;;3.57;;
5805;SDS011;2929;50.810;8.342;2022-10-28T12:34:59;28.80;;;3.60;;
5805;SDS011;2929;50.810;8.342;2022-10-28T12:37:31;13.17;;;4.13;;
5805;SDS011;2929;50.810;8.342;2022-10-28T12:40:06;12.40;;;3.40;;
5805;SDS011;2929;50.810;8.342;2022-10-28T12:42:41;17.47;;;3.70;;
5805;SDS011;2929;50.810;8.342;2022-10-28T12:45:12;15.60;;;3.80;;
5805;SDS011;2929;50.810;8.342;2022-10-28T12:47:43;21.13;;;3.70;;
5805;SDS011;2929;50.810;8.342;2022-10-28T12:50:16;12.40;;;3.40;;
5805;SDS011;2929;50.810;8.342;2022-10-28T12:52:53;16.13;;;3.93;;
5805;SDS011;2929;50.810;8.342;2022-10-28T12:55:28;12.40;;;3.90;;
5805;SDS011;2929;50.810;8.342;2022-10-28T12:58:01;14.20;;;3.63;;
5805;SDS011;2929;50.810;8.342;2022-10-28T13:00:33;8.50;;;3.50;;
5805;SDS011;2929;50.810;8.342;2022-10-28T13:03:06;11.07;;;3.80;;
5805;SDS011;2929;50.810;8.342;2022-10-28T13:05:37;14.60;;;3.60;;
5805;SDS011;2929;50.810;8.342;2022-10-28T13:08:23;14.60;;;3.50;;
5805;SDS011;2929;50.810;8.342;2022-10-28T13:11:28;9.50;;;3.50;;
5805;SDS011;2929;50.810;8.342;2022-10-28T13:14:20;12.93;;;3.50;;
5805;SDS011;2929;50.810;8.342;2022-10-28T13:17:14;13.37;;;3.27;;
5805;SDS011;2929;50.810;8.342;2022-10-28T13:19:52;14.30;;;3.70;;
5805;SDS011;2929;50.810;8.342;2022-10-28T13:22:38;15.90;;;3.80;;
5805;SDS011;2929;50.810;8.342;2022-10-28T13:25:29;16.07;;;4.40;;
5805;SDS011;2929;50.810;8.342;2022-10-28T13:28:14;23.33;;;4.33;;
5805;SDS011;2929;50.810;8.342;2022-10-28T13:30:52;18.67;;;4.00;;
5805;SDS011;2929;50.810;8.342;2022-10-28T13:33:22;18.50;;;4.13;;
5805;SDS011;2929;50.810;8.342;2022-10-28T13:35:51;8.73;;;3.67;;
5805;SDS011;2929;50.810;8.342;2022-10-28T13:38:20;18.53;;;3.80;;
5805;SDS011;2929;50.810;8.342;2022-10-28T13:43:57;11.80;;;4.10;;
5805;SDS011;2929;50.810;8.342;2022-10-28T13:50:08;7.43;;;3.60;;
5805;SDS011;2929;50.810;8.342;2022-10-28T13:59:24;15.97;;;5.37;;
5805;SDS011;2929;50.810;8.342;2022-10-28T14:01:55;6.27;;;2.97;;
5805;SDS011;2929;50.810;8.342;2022-10-28T14:04:27;13.37;;;3.70;;
5805;SDS011;2929;50.810;8.342;2022-10-28T14:07:20;19.57;;;4.10;;
5805;SDS011;2929;50.810;8.342;2022-10-28T14:09:51;16.43;;;3.90;;
5805;SDS011;2929;50.810;8.342;2022-10-28T14:12:22;14.50;;;3.23;;
5805;SDS011;2929;50.810;8.342;2022-10-28T14:14:54;8.20;;;3.00;;
5805;SDS011;2929;50.810;8.342;2022-10-28T14:17:29;16.63;;;3.57;;
5805;SDS011;2929;50.810;8.342;2022-10-28T14:20:02;15.63;;;3.80;;
5805;SDS011;2929;50.810;8.342;2022-10-28T14:22:33;19.13;;;3.77;;
5805;SDS011;2929;50.810;8.342;2022-10-28T14:25:01;9.80;;;4.00;;
5805;SDS011;2929;50.810;8.342;2022-10-28T14:27:50;13.60;;;4.03;;
5805;SDS011;2929;50.810;8.342;2022-10-28T14:30:19;15.13;;;4.00;;
5805;SDS011;2929;50.810;8.342;2022-10-28T14:35:46;14.43;;;4.00;;
5805;SDS011;2929;50.810;8.342;2022-10-28T14:38:39;11.83;;;3.93;;
5805;SDS011;2929;50.810;8.342;2022-10-28T14:41:36;30.20;;;4.63;;
5805;SDS011;2929;50.810;8.342;2022-10-28T14:44:16;11.63;;;3.30;;
5805;SDS011;2929;50.810;8.342;2022-10-28T14:46:59;14.87;;;4.23;;
5805;SDS011;2929;50.810;8.342;2022-10-28T14:49:37;17.10;;;4.00;;
5805;SDS011;2929;50.810;8.342;2022-10-28T14:52:06;11.60;;;3.77;;
5805;SDS011;2929;50.810;8.342;2022-10-28T14:54:42;13.90;;;4.77;;
5805;SDS011;2929;50.810;8.342;2022-10-28T14:57:13;17.27;;;5.23;;
5805;SDS011;2929;50.810;8.342;2022-10-28T14:59:48;14.73;;;4.70;;
5805;SDS011;2929;50.810;8.342;2022-10-28T15:02:17;21.27;;;4.23;;
5805;SDS011;2929;50.810;8.342;2022-10-28T15:04:55;35.50;;;6.20;;
5805;SDS011;2929;50.810;8.342;2022-10-28T15:07:25;20.00;;;4.17;;
5805;SDS011;2929;50.810;8.342;2022-10-28T15:09:52;20.27;;;4.63;;
5805;SDS011;2929;50.810;8.342;2022-10-28T15:12:21;20.07;;;4.20;;
5805;SDS011;2929;50.810;8.342;2022-10-28T15:14:52;12.73;;;4.43;;
5805;SDS011;2929;50.810;8.342;2022-10-28T15:17:21;19.97;;;4.47;;
5805;SDS011;2929;50.810;8.342;2022-10-28T15:19:50;13.00;;;4.00;;
5805;SDS011;2929;50.810;8.342;2022-10-28T15:22:19;27.13;;;4.67;;
5805;SDS011;2929;50.810;8.342;2022-10-28T15:24:55;14.60;;;4.07;;
5805;SDS011;2929;50.810;8.342;2022-10-28T15:27:24;12.23;;;4.10;;
5805;SDS011;2929;50.810;8.342;2022-10-28T15:29:54;15.20;;;4.23;;
5805;SDS011;2929;50.810;8.342;2022-10-28T15:32:26;16.23;;;3.90;;
5805;SDS011;2929;50.810;8.342;2022-10-28T15:34:55;17.30;;;5.83;;
5805;SDS011;2929;50.810;8.342;2022-10-28T15:37:23;17.90;;;4.50;;
5805;SDS011;2929;50.810;8.342;2022-10-28T15:39:51;13.10;;;4.87;;
5805;SDS011;2929;50.810;8.342;2022-10-28T15:42:37;20.10;;;4.97;;
5805;SDS011;2929;50.810;8.342;2022-10-28T15:45:16;12.67;;;4.37;;
5805;SDS011;2929;50.810;8.342;2022-10-28T15:47:45;28.93;;;4.70;;
5805;SDS011;2929;50.810;8.342;2022-10-28T15:50:22;19.00;;;5.53;;
5805;SDS011;2929;50.810;8.342;2022-10-28T15:52:54;17.47;;;4.43;;
5805;SDS011;2929;50.810;8.342;2022-10-28T15:58:44;23.53;;;5.20;;
5805;SDS011;2929;50.810;8.342;2022-10-28T16:01:27;20.27;;;6.37;;